sensor_id;sensor_type;location;lat;lon;timestamp;pressure;altitude;pressure_sealevel;temperature;humidity
73974;BME280;62336;-26.094;27.994;2023-05-31T00:01:07;84991.35;;;26.72;23.86
73974;BME280;62336;-26.094;27.994;2023-05-31T00:03:32;84989.18;;;26.87;23.60
73974;BME280;62336;-26.094;27.994;2023-05-31T00:05:58;84995.75;;;26.78;23.44
73974;BME280;62336;-26.094;27.994;2023-05-31T00:08:23;84994.70;;;26.68;23.85
73974;BME280;62336;-26.094;27.994;2023-05-31T00:10:48;84996.66;;;26.39;24.00
73974;BME280;62336;-26.094;27.994;2023-05-31T00:13:13;85000.97;;;26.04;24.38
73974;BME280;62336;-26.094;27.994;2023-05-31T00:15:39;84995.95;;;26.53;24.28
73974;BME280;62336;-26.094;27.994;2023-05-31T00:18:04;84991.62;;;26.25;24.12
73974;BME280;62336;-26.094;27.994;2023-05-31T00:20:30;84980.35;;;26.43;24.19
73974;BME280;62336;-26.094;27.994;2023-05-31T00:22:55;84969.82;;;26.52;24.20
73974;BME280;62336;-26.094;27.994;2023-05-31T00:25:20;84971.14;;;26.67;23.98
73974;BME280;62336;-26.094;27.994;2023-05-31T00:27:46;84970.19;;;26.98;23.60
73974;BME280;62336;-26.094;27.994;2023-05-31T00:30:13;84965.44;;;27.02;23.59
73974;BME280;62336;-26.094;27.994;2023-05-31T00:32:37;84963.42;;;26.59;23.76
73974;BME280;62336;-26.094;27.994;2023-05-31T00:35:03;84960.37;;;26.74;23.61
73974;BME280;62336;-26.094;27.994;2023-05-31T00:37:28;84957.34;;;26.63;23.80
73974;BME280;62336;-26.094;27.994;2023-05-31T00:39:54;84956.96;;;26.77;23.84
73974;BME280;62336;-26.094;27.994;2023-05-31T00:42:18;84950.20;;;26.77;23.76
73974;BME280;62336;-26.094;27.994;2023-05-31T00:44:44;84951.09;;;27.25;23.25
73974;BME280;62336;-26.094;27.994;2023-05-31T00:47:10;84953.85;;;27.14;23.30
73974;BME280;62336;-26.094;27.994;2023-05-31T00:49:36;84958.63;;;27.02;23.39
73974;BME280;62336;-26.094;27.994;2023-05-31T00:52:01;84961.22;;;26.52;23.78
73974;BME280;62336;-26.094;27.994;2023-05-31T00:54:26;84966.31;;;26.71;23.79
73974;BME280;62336;-26.094;27.994;2023-05-31T00:56:53;84972.63;;;26.49;23.94
73974;BME280;62336;-26.094;27.994;2023-05-31T00:59:17;84966.49;;;26.81;23.68
73974;BME280;62336;-26.094;27.994;2023-05-31T01:01:43;84962.14;;;26.85;23.63
73974;BME280;62336;-26.094;27.994;2023-05-31T01:04:09;84964.83;;;26.65;23.74
73974;BME280;62336;-26.094;27.994;2023-05-31T01:06:35;84952.85;;;26.51;24.04
73974;BME280;62336;-26.094;27.994;2023-05-31T01:09:01;84959.98;;;26.37;24.14
73974;BME280;62336;-26.094;27.994;2023-05-31T01:11:34;84963.07;;;26.80;23.91
73974;BME280;62336;-26.094;27.994;2023-05-31T01:13:56;84960.66;;;26.34;24.25
73974;BME280;62336;-26.094;27.994;2023-05-31T01:16:20;84967.59;;;26.16;24.32
73974;BME280;62336;-26.094;27.994;2023-05-31T01:18:44;84972.20;;;26.53;23.85
73974;BME280;62336;-26.094;27.994;2023-05-31T01:21:07;84966.96;;;26.60;23.85
73974;BME280;62336;-26.094;27.994;2023-05-31T01:23:41;84958.64;;;26.70;23.85
73974;BME280;62336;-26.094;27.994;2023-05-31T01:28:25;84945.25;;;26.41;24.11
73974;BME280;62336;-26.094;27.994;2023-05-31T01:30:49;84943.29;;;27.04;23.54
73974;BME280;62336;-26.094;27.994;2023-05-31T01:33:16;84947.69;;;26.58;23.85
73974;BME280;62336;-26.094;27.994;2023-05-31T01:35:41;84944.80;;;26.54;23.81
73974;BME280;62336;-26.094;27.994;2023-05-31T01:38:06;84939.48;;;26.69;23.85
73974;BME280;62336;-26.094;27.994;2023-05-31T01:40:32;84928.31;;;26.58;24.06
73974;BME280;62336;-26.094;27.994;2023-05-31T01:42:58;84927.56;;;27.33;23.86
73974;BME280;62336;-26.094;27.994;2023-05-31T01:45:23;84930.93;;;26.90;23.73
73974;BME280;62336;-26.094;27.994;2023-05-31T01:47:52;84938.13;;;27.43;23.52
73974;BME280;62336;-26.094;27.994;2023-05-31T01:50:15;84943.19;;;26.75;23.84
73974;BME280;62336;-26.094;27.994;2023-05-31T01:52:40;84943.40;;;26.65;24.08
73974;BME280;62336;-26.094;27.994;2023-05-31T01:55:06;84940.61;;;26.96;23.39
73974;BME280;62336;-26.094;27.994;2023-05-31T01:57:31;84940.06;;;26.89;23.58
73974;BME280;62336;-26.094;27.994;2023-05-31T01:59:58;84947.93;;;26.56;24.17
73974;BME280;62336;-26.094;27.994;2023-05-31T02:02:22;84936.44;;;26.84;23.90
73974;BME280;62336;-26.094;27.994;2023-05-31T02:04:48;84947.97;;;26.88;23.93
73974;BME280;62336;-26.094;27.994;2023-05-31T02:07:13;84949.84;;;26.49;24.24
73974;BME280;62336;-26.094;27.994;2023-05-31T02:09:40;84948.12;;;27.20;23.66
73974;BME280;62336;-26.094;27.994;2023-05-31T02:12:06;84947.99;;;26.86;23.88
73974;BME280;62336;-26.094;27.994;2023-05-31T02:14:30;84950.11;;;27.12;23.91
73974;BME280;62336;-26.094;27.994;2023-05-31T02:16:56;84946.37;;;26.59;24.01
73974;BME280;62336;-26.094;27.994;2023-05-31T02:19:22;84952.09;;;26.37;24.41
73974;BME280;62336;-26.094;27.994;2023-05-31T02:21:48;84944.81;;;26.52;24.34
73974;BME280;62336;-26.094;27.994;2023-05-31T02:24:14;84933.56;;;26.84;24.08
73974;BME280;62336;-26.094;27.994;2023-05-31T02:26:39;84938.42;;;27.02;23.76
73974;BME280;62336;-26.094;27.994;2023-05-31T02:29:05;84949.72;;;26.82;23.88
73974;BME280;62336;-26.094;27.994;2023-05-31T02:31:31;84950.14;;;26.40;24.44
73974;BME280;62336;-26.094;27.994;2023-05-31T02:33:57;84947.32;;;26.50;24.26
73974;BME280;62336;-26.094;27.994;2023-05-31T02:36:22;84928.64;;;26.72;24.07
73974;BME280;62336;-26.094;27.994;2023-05-31T02:38:48;84927.97;;;26.58;24.16
73974;BME280;62336;-26.094;27.994;2023-05-31T02:41:13;84941.05;;;27.11;23.64
73974;BME280;62336;-26.094;27.994;2023-05-31T02:43:38;84939.09;;;26.99;23.93
73974;BME280;62336;-26.094;27.994;2023-05-31T02:46:03;84941.32;;;26.85;23.72
73974;BME280;62336;-26.094;27.994;2023-05-31T02:48:29;84950.86;;;27.24;23.91
73974;BME280;62336;-26.094;27.994;2023-05-31T02:50:55;84945.60;;;26.63;23.85
73974;BME280;62336;-26.094;27.994;2023-05-31T02:53:20;84936.27;;;26.58;24.11
73974;BME280;62336;-26.094;27.994;2023-05-31T02:55:45;84937.75;;;26.35;24.64
73974;BME280;62336;-26.094;27.994;2023-05-31T02:58:11;84954.02;;;26.66;24.34
73974;BME280;62336;-26.094;27.994;2023-05-31T03:00:36;84956.67;;;26.31;24.25
73974;BME280;62336;-26.094;27.994;2023-05-31T03:03:04;84949.50;;;26.21;24.30
73974;BME280;62336;-26.094;27.994;2023-05-31T03:05:27;84956.03;;;26.40;24.65
73974;BME280;62336;-26.094;27.994;2023-05-31T03:07:53;84960.21;;;26.60;24.25
73974;BME280;62336;-26.094;27.994;2023-05-31T03:10:19;84956.55;;;26.95;24.12
73974;BME280;62336;-26.094;27.994;2023-05-31T03:12:44;84945.48;;;26.64;24.36
73974;BME280;62336;-26.094;27.994;2023-05-31T03:15:09;84950.77;;;26.27;24.36
73974;BME280;62336;-26.094;27.994;2023-05-31T03:17:35;84956.82;;;26.82;24.31
73974;BME280;62336;-26.094;27.994;2023-05-31T03:20:01;84958.21;;;26.29;24.37
73974;BME280;62336;-26.094;27.994;2023-05-31T03:22:27;84943.42;;;26.18;24.35
73974;BME280;62336;-26.094;27.994;2023-05-31T03:24:52;84952.14;;;26.95;24.06
73974;BME280;62336;-26.094;27.994;2023-05-31T03:27:17;84962.16;;;26.26;24.36
73974;BME280;62336;-26.094;27.994;2023-05-31T03:29:43;84961.38;;;26.31;24.43
73974;BME280;62336;-26.094;27.994;2023-05-31T03:32:08;84964.46;;;26.67;23.86
73974;BME280;62336;-26.094;27.994;2023-05-31T03:34:33;84960.02;;;26.97;24.02
73974;BME280;62336;-26.094;27.994;2023-05-31T03:36:58;84957.53;;;26.15;24.28
73974;BME280;62336;-26.094;27.994;2023-05-31T03:39:24;84948.02;;;26.62;24.17
73974;BME280;62336;-26.094;27.994;2023-05-31T03:41:49;84929.81;;;26.01;24.55
73974;BME280;62336;-26.094;27.994;2023-05-31T03:44:15;84943.91;;;26.45;23.98
73974;BME280;62336;-26.094;27.994;2023-05-31T03:46:40;84946.81;;;26.30;24.19
73974;BME280;62336;-26.094;27.994;2023-05-31T03:49:05;84946.99;;;26.25;24.33
73974;BME280;62336;-26.094;27.994;2023-05-31T03:51:31;84947.85;;;26.07;24.52
73974;BME280;62336;-26.094;27.994;2023-05-31T03:53:57;84941.11;;;26.67;23.91
73974;BME280;62336;-26.094;27.994;2023-05-31T03:56:22;84946.06;;;26.60;23.76
73974;BME280;62336;-26.094;27.994;2023-05-31T03:58:48;84948.61;;;26.35;24.23
73974;BME280;62336;-26.094;27.994;2023-05-31T04:01:13;84952.61;;;25.83;24.52
73974;BME280;62336;-26.094;27.994;2023-05-31T04:03:39;84953.79;;;26.55;24.34
73974;BME280;62336;-26.094;27.994;2023-05-31T04:06:05;84944.39;;;26.45;24.04
73974;BME280;62336;-26.094;27.994;2023-05-31T04:08:30;84943.05;;;26.54;24.03
73974;BME280;62336;-26.094;27.994;2023-05-31T04:10:56;84942.03;;;26.86;24.07
73974;BME280;62336;-26.094;27.994;2023-05-31T04:13:21;84933.84;;;26.81;23.70
73974;BME280;62336;-26.094;27.994;2023-05-31T04:15:47;84941.84;;;27.53;23.35
73974;BME280;62336;-26.094;27.994;2023-05-31T04:18:12;84948.37;;;26.84;23.73
73974;BME280;62336;-26.094;27.994;2023-05-31T04:20:37;84942.99;;;26.64;24.01
73974;BME280;62336;-26.094;27.994;2023-05-31T04:23:03;84944.09;;;26.03;24.22
73974;BME280;62336;-26.094;27.994;2023-05-31T04:25:29;84927.62;;;25.96;24.57
73974;BME280;62336;-26.094;27.994;2023-05-31T04:27:54;84926.29;;;26.33;24.11
73974;BME280;62336;-26.094;27.994;2023-05-31T04:30:19;84940.22;;;26.80;23.55
73974;BME280;62336;-26.094;27.994;2023-05-31T04:32:45;84940.38;;;26.28;24.25
73974;BME280;62336;-26.094;27.994;2023-05-31T04:35:10;84946.70;;;26.21;24.32
73974;BME280;62336;-26.094;27.994;2023-05-31T04:37:36;84950.99;;;26.09;24.27
73974;BME280;62336;-26.094;27.994;2023-05-31T04:40:01;84942.20;;;26.41;24.25
73974;BME280;62336;-26.094;27.994;2023-05-31T04:42:27;84948.76;;;26.33;23.87
73974;BME280;62336;-26.094;27.994;2023-05-31T04:44:54;84959.08;;;26.12;24.08
73974;BME280;62336;-26.094;27.994;2023-05-31T04:47:18;84961.84;;;26.52;24.04
73974;BME280;62336;-26.094;27.994;2023-05-31T04:49:43;84962.83;;;26.54;23.92
73974;BME280;62336;-26.094;27.994;2023-05-31T04:52:08;84964.03;;;26.09;24.13
73974;BME280;62336;-26.094;27.994;2023-05-31T04:54:33;84974.55;;;26.31;23.96
73974;BME280;62336;-26.094;27.994;2023-05-31T04:56:59;84973.22;;;26.65;23.72
73974;BME280;62336;-26.094;27.994;2023-05-31T04:59:25;84975.82;;;26.11;24.35
73974;BME280;62336;-26.094;27.994;2023-05-31T05:01:50;84979.50;;;26.24;24.51
73974;BME280;62336;-26.094;27.994;2023-05-31T05:04:16;84980.55;;;26.33;24.15
73974;BME280;62336;-26.094;27.994;2023-05-31T05:06:41;84976.94;;;26.93;23.79
73974;BME280;62336;-26.094;27.994;2023-05-31T05:09:07;84979.08;;;26.38;23.98
73974;BME280;62336;-26.094;27.994;2023-05-31T05:11:32;84980.68;;;26.58;24.16
73974;BME280;62336;-26.094;27.994;2023-05-31T05:13:58;84983.67;;;26.18;24.11
73974;BME280;62336;-26.094;27.994;2023-05-31T05:16:24;84987.63;;;26.27;23.93
73974;BME280;62336;-26.094;27.994;2023-05-31T05:18:49;84989.12;;;26.56;23.65
73974;BME280;62336;-26.094;27.994;2023-05-31T05:21:14;84996.40;;;26.20;24.12
73974;BME280;62336;-26.094;27.994;2023-05-31T05:23:40;85003.60;;;26.26;23.88
73974;BME280;62336;-26.094;27.994;2023-05-31T05:26:05;84991.22;;;26.09;24.17
73974;BME280;62336;-26.094;27.994;2023-05-31T05:28:30;84985.14;;;26.81;23.91
73974;BME280;62336;-26.094;27.994;2023-05-31T05:30:56;85000.33;;;26.45;24.01
73974;BME280;62336;-26.094;27.994;2023-05-31T05:33:22;85002.83;;;26.04;24.19
73974;BME280;62336;-26.094;27.994;2023-05-31T05:35:47;85007.10;;;26.41;24.14
73974;BME280;62336;-26.094;27.994;2023-05-31T05:38:12;85005.00;;;26.38;23.93
73974;BME280;62336;-26.094;27.994;2023-05-31T05:40:38;85006.91;;;26.26;24.05
73974;BME280;62336;-26.094;27.994;2023-05-31T05:43:05;85004.79;;;26.60;23.79
73974;BME280;62336;-26.094;27.994;2023-05-31T05:45:29;85006.67;;;26.30;23.91
73974;BME280;62336;-26.094;27.994;2023-05-31T05:47:54;85005.60;;;26.26;24.09
73974;BME280;62336;-26.094;27.994;2023-05-31T05:50:19;85018.70;;;26.31;24.07
73974;BME280;62336;-26.094;27.994;2023-05-31T05:52:45;85019.41;;;26.67;23.93
73974;BME280;62336;-26.094;27.994;2023-05-31T05:55:10;85028.73;;;26.44;24.05
73974;BME280;62336;-26.094;27.994;2023-05-31T05:57:36;85034.93;;;26.86;23.62
73974;BME280;62336;-26.094;27.994;2023-05-31T06:00:02;85034.13;;;26.65;23.81
73974;BME280;62336;-26.094;27.994;2023-05-31T06:02:26;85030.88;;;26.74;23.68
73974;BME280;62336;-26.094;27.994;2023-05-31T06:04:52;85029.99;;;26.64;23.79
73974;BME280;62336;-26.094;27.994;2023-05-31T06:07:17;85029.08;;;26.51;23.93
73974;BME280;62336;-26.094;27.994;2023-05-31T06:09:43;85030.64;;;26.64;23.71
73974;BME280;62336;-26.094;27.994;2023-05-31T06:12:09;85025.51;;;26.31;23.89
73974;BME280;62336;-26.094;27.994;2023-05-31T06:14:33;85019.12;;;26.82;23.59
73974;BME280;62336;-26.094;27.994;2023-05-31T06:16:58;85023.38;;;26.42;23.98
73974;BME280;62336;-26.094;27.994;2023-05-31T06:19:24;85020.34;;;26.28;24.27
73974;BME280;62336;-26.094;27.994;2023-05-31T06:21:49;85023.37;;;26.56;23.90
73974;BME280;62336;-26.094;27.994;2023-05-31T06:24:15;85021.06;;;26.54;24.15
73974;BME280;62336;-26.094;27.994;2023-05-31T06:26:41;85013.10;;;26.33;24.13
73974;BME280;62336;-26.094;27.994;2023-05-31T06:29:06;85007.09;;;26.92;23.97
73974;BME280;62336;-26.094;27.994;2023-05-31T06:31:31;85011.49;;;26.81;24.09
73974;BME280;62336;-26.094;27.994;2023-05-31T06:33:57;85018.50;;;26.48;24.12
73974;BME280;62336;-26.094;27.994;2023-05-31T06:36:22;85021.80;;;26.56;24.19
73974;BME280;62336;-26.094;27.994;2023-05-31T06:38:48;85027.90;;;26.81;23.79
73974;BME280;62336;-26.094;27.994;2023-05-31T06:41:14;85030.40;;;26.68;23.99
73974;BME280;62336;-26.094;27.994;2023-05-31T06:43:39;85021.75;;;26.92;24.03
73974;BME280;62336;-26.094;27.994;2023-05-31T06:46:04;85020.38;;;26.87;23.79
73974;BME280;62336;-26.094;27.994;2023-05-31T06:48:40;85018.98;;;27.38;23.28
73974;BME280;62336;-26.094;27.994;2023-05-31T06:50:55;85022.28;;;27.02;23.67
73974;BME280;62336;-26.094;27.994;2023-05-31T06:53:20;85018.20;;;26.83;23.93
73974;BME280;62336;-26.094;27.994;2023-05-31T06:55:45;85017.36;;;26.72;24.21
73974;BME280;62336;-26.094;27.994;2023-05-31T06:58:13;85019.93;;;26.73;24.03
73974;BME280;62336;-26.094;27.994;2023-05-31T07:00:47;85024.66;;;27.18;23.71
73974;BME280;62336;-26.094;27.994;2023-05-31T07:03:02;85024.43;;;26.78;24.20
73974;BME280;62336;-26.094;27.994;2023-05-31T07:05:33;85028.98;;;26.63;24.53
73974;BME280;62336;-26.094;27.994;2023-05-31T07:08:02;85033.85;;;26.73;24.26
73974;BME280;62336;-26.094;27.994;2023-05-31T07:10:28;85030.81;;;27.48;24.16
73974;BME280;62336;-26.094;27.994;2023-05-31T07:12:55;85027.58;;;27.22;23.66
73974;BME280;62336;-26.094;27.994;2023-05-31T07:15:10;85020.59;;;27.33;23.50
73974;BME280;62336;-26.094;27.994;2023-05-31T07:17:35;85018.06;;;27.61;23.42
73974;BME280;62336;-26.094;27.994;2023-05-31T07:20:00;85012.49;;;27.15;23.74
73974;BME280;62336;-26.094;27.994;2023-05-31T07:22:25;85018.57;;;27.02;23.84
73974;BME280;62336;-26.094;27.994;2023-05-31T07:24:51;85023.21;;;26.72;24.22
73974;BME280;62336;-26.094;27.994;2023-05-31T07:27:16;85026.00;;;27.19;23.95
73974;BME280;62336;-26.094;27.994;2023-05-31T07:29:42;85023.48;;;26.82;24.04
73974;BME280;62336;-26.094;27.994;2023-05-31T07:32:08;85019.50;;;27.17;23.69
73974;BME280;62336;-26.094;27.994;2023-05-31T07:34:34;85023.80;;;26.81;24.04
73974;BME280;62336;-26.094;27.994;2023-05-31T07:36:58;85033.48;;;26.76;24.16
73974;BME280;62336;-26.094;27.994;2023-05-31T07:39:23;85036.88;;;26.76;24.41
73974;BME280;62336;-26.094;27.994;2023-05-31T07:41:49;85036.97;;;26.39;24.54
73974;BME280;62336;-26.094;27.994;2023-05-31T07:44:15;85025.52;;;27.14;24.13
73974;BME280;62336;-26.094;27.994;2023-05-31T07:46:40;85028.70;;;27.24;23.60
73974;BME280;62336;-26.094;27.994;2023-05-31T07:49:05;85029.91;;;26.69;24.28
73974;BME280;62336;-26.094;27.994;2023-05-31T07:51:31;85030.93;;;27.37;23.89
73974;BME280;62336;-26.094;27.994;2023-05-31T07:53:56;85028.04;;;26.85;23.93
73974;BME280;62336;-26.094;27.994;2023-05-31T07:56:22;85018.70;;;26.86;24.15
73974;BME280;62336;-26.094;27.994;2023-05-31T07:58:46;85027.45;;;26.81;24.23
73974;BME280;62336;-26.094;27.994;2023-05-31T08:01:11;85030.21;;;27.56;23.46
73974;BME280;62336;-26.094;27.994;2023-05-31T08:03:36;85030.42;;;27.21;24.01
73974;BME280;62336;-26.094;27.994;2023-05-31T08:06:02;85030.18;;;27.65;23.58
73974;BME280;62336;-26.094;27.994;2023-05-31T08:08:28;85027.36;;;27.72;23.22
73974;BME280;62336;-26.094;27.994;2023-05-31T08:10:53;85023.67;;;27.55;23.45
73974;BME280;62336;-26.094;27.994;2023-05-31T08:13:18;85027.51;;;27.60;23.34
73974;BME280;62336;-26.094;27.994;2023-05-31T08:15:44;85035.86;;;27.35;23.71
73974;BME280;62336;-26.094;27.994;2023-05-31T08:18:10;85028.18;;;27.18;23.91
73974;BME280;62336;-26.094;27.994;2023-05-31T08:20:35;85026.96;;;27.12;23.75
73974;BME280;62336;-26.094;27.994;2023-05-31T08:23:00;85034.80;;;26.80;23.90
73974;BME280;62336;-26.094;27.994;2023-05-31T08:25:26;85040.06;;;27.17;23.87
73974;BME280;62336;-26.094;27.994;2023-05-31T08:27:52;85034.97;;;27.52;23.54
73974;BME280;62336;-26.094;27.994;2023-05-31T08:30:16;85026.13;;;27.48;23.72
73974;BME280;62336;-26.094;27.994;2023-05-31T08:32:42;85021.89;;;27.64;23.51
73974;BME280;62336;-26.094;27.994;2023-05-31T08:35:08;85016.86;;;27.74;23.00
73974;BME280;62336;-26.094;27.994;2023-05-31T08:37:32;85018.00;;;27.45;23.50
73974;BME280;62336;-26.094;27.994;2023-05-31T08:39:57;85019.55;;;27.52;23.56
73974;BME280;62336;-26.094;27.994;2023-05-31T08:42:28;85011.32;;;27.92;23.25
73974;BME280;62336;-26.094;27.994;2023-05-31T08:44:48;85012.43;;;27.85;23.35
73974;BME280;62336;-26.094;27.994;2023-05-31T08:47:21;85020.47;;;27.71;23.54
73974;BME280;62336;-26.094;27.994;2023-05-31T08:49:40;85016.51;;;27.83;23.18
73974;BME280;62336;-26.094;27.994;2023-05-31T08:52:06;85022.94;;;27.73;23.09
73974;BME280;62336;-26.094;27.994;2023-05-31T08:54:29;85022.35;;;27.46;23.52
73974;BME280;62336;-26.094;27.994;2023-05-31T08:56:55;85025.19;;;27.42;23.55
73974;BME280;62336;-26.094;27.994;2023-05-31T08:59:21;85020.42;;;27.57;23.44
73974;BME280;62336;-26.094;27.994;2023-05-31T09:01:47;85020.64;;;28.17;22.71
73974;BME280;62336;-26.094;27.994;2023-05-31T09:04:14;85018.84;;;27.52;23.04
73974;BME280;62336;-26.094;27.994;2023-05-31T09:06:38;85017.19;;;28.11;22.62
73974;BME280;62336;-26.094;27.994;2023-05-31T09:09:03;85013.84;;;28.26;22.45
73974;BME280;62336;-26.094;27.994;2023-05-31T09:11:29;85005.72;;;28.06;22.94
73974;BME280;62336;-26.094;27.994;2023-05-31T09:13:55;84999.59;;;28.17;22.68
73974;BME280;62336;-26.094;27.994;2023-05-31T09:16:21;84998.04;;;28.06;22.66
73974;BME280;62336;-26.094;27.994;2023-05-31T09:18:46;84991.58;;;27.71;23.10
73974;BME280;62336;-26.094;27.994;2023-05-31T09:21:11;84974.01;;;27.67;23.29
73974;BME280;62336;-26.094;27.994;2023-05-31T09:23:35;84974.90;;;27.46;23.18
73974;BME280;62336;-26.094;27.994;2023-05-31T09:26:04;84962.65;;;27.45;23.49
73974;BME280;62336;-26.094;27.994;2023-05-31T09:28:26;84956.31;;;27.47;23.69
73974;BME280;62336;-26.094;27.994;2023-05-31T09:31:02;84947.60;;;28.41;23.25
73974;BME280;62336;-26.094;27.994;2023-05-31T09:33:18;84947.66;;;28.64;22.93
73974;BME280;62336;-26.094;27.994;2023-05-31T09:38:09;84948.39;;;28.89;22.38
73974;BME280;62336;-26.094;27.994;2023-05-31T09:40:34;84943.68;;;28.16;23.01
73974;BME280;62336;-26.094;27.994;2023-05-31T09:43:00;84940.16;;;28.22;23.06
73974;BME280;62336;-26.094;27.994;2023-05-31T09:45:25;84935.77;;;29.08;22.46
73974;BME280;62336;-26.094;27.994;2023-05-31T09:47:50;84924.68;;;28.71;22.32
73974;BME280;62336;-26.094;27.994;2023-05-31T09:50:17;84927.74;;;28.23;22.67
73974;BME280;62336;-26.094;27.994;2023-05-31T09:52:40;84923.12;;;28.74;22.25
73974;BME280;62336;-26.094;27.994;2023-05-31T09:55:07;84911.98;;;29.16;21.59
73974;BME280;62336;-26.094;27.994;2023-05-31T09:59:57;84896.77;;;28.98;21.18
73974;BME280;62336;-26.094;27.994;2023-05-31T10:02:22;84896.65;;;29.00;20.97
73974;BME280;62336;-26.094;27.994;2023-05-31T10:04:48;84898.73;;;28.48;21.57
73974;BME280;62336;-26.094;27.994;2023-05-31T10:07:13;84888.14;;;28.44;21.97
73974;BME280;62336;-26.094;27.994;2023-05-31T10:09:38;84889.47;;;27.97;22.09
73974;BME280;62336;-26.094;27.994;2023-05-31T10:12:04;84882.86;;;28.23;22.20
73974;BME280;62336;-26.094;27.994;2023-05-31T10:14:34;84877.24;;;28.69;22.11
73974;BME280;62336;-26.094;27.994;2023-05-31T10:16:56;84873.78;;;28.86;21.91
73974;BME280;62336;-26.094;27.994;2023-05-31T10:19:24;84876.32;;;28.51;21.71
73974;BME280;62336;-26.094;27.994;2023-05-31T10:21:47;84875.53;;;28.86;21.45
73974;BME280;62336;-26.094;27.994;2023-05-31T10:24:16;84873.03;;;28.59;21.24
73974;BME280;62336;-26.094;27.994;2023-05-31T10:26:44;84871.68;;;29.24;21.07
73974;BME280;62336;-26.094;27.994;2023-05-31T10:29:09;84869.12;;;29.94;20.36
73974;BME280;62336;-26.094;27.994;2023-05-31T10:31:33;84868.16;;;29.60;20.20
73974;BME280;62336;-26.094;27.994;2023-05-31T10:33:56;84865.94;;;29.31;20.47
73974;BME280;62336;-26.094;27.994;2023-05-31T10:36:19;84869.99;;;29.11;20.42
73974;BME280;62336;-26.094;27.994;2023-05-31T10:38:50;84870.50;;;29.11;20.82
73974;BME280;62336;-26.094;27.994;2023-05-31T10:41:12;84864.12;;;28.66;20.41
73974;BME280;62336;-26.094;27.994;2023-05-31T10:43:37;84855.70;;;28.96;20.55
73974;BME280;62336;-26.094;27.994;2023-05-31T10:46:03;84853.54;;;29.16;19.86
73974;BME280;62336;-26.094;27.994;2023-05-31T10:48:30;84856.51;;;28.61;20.60
73974;BME280;62336;-26.094;27.994;2023-05-31T10:50:54;84850.76;;;28.80;20.59
73974;BME280;62336;-26.094;27.994;2023-05-31T10:53:17;84848.30;;;28.81;20.79
73974;BME280;62336;-26.094;27.994;2023-05-31T10:55:44;84843.99;;;28.57;20.90
73974;BME280;62336;-26.094;27.994;2023-05-31T11:00:38;84843.20;;;29.32;20.36
73974;BME280;62336;-26.094;27.994;2023-05-31T11:02:59;84837.76;;;28.95;20.45
73974;BME280;62336;-26.094;27.994;2023-05-31T11:05:26;84833.51;;;28.46;20.79
73974;BME280;62336;-26.094;27.994;2023-05-31T11:07:51;84823.23;;;29.23;20.30
73974;BME280;62336;-26.094;27.994;2023-05-31T11:10:24;84822.73;;;28.52;20.56
73974;BME280;62336;-26.094;27.994;2023-05-31T11:12:41;84820.77;;;29.17;20.07
73974;BME280;62336;-26.094;27.994;2023-05-31T11:15:13;84808.89;;;29.38;19.94
73974;BME280;62336;-26.094;27.994;2023-05-31T11:17:39;84801.28;;;29.78;19.36
73974;BME280;62336;-26.094;27.994;2023-05-31T11:19:58;84803.67;;;29.61;19.70
73974;BME280;62336;-26.094;27.994;2023-05-31T11:22:25;84801.74;;;29.33;19.27
73974;BME280;62336;-26.094;27.994;2023-05-31T11:24:50;84791.77;;;28.91;19.81
73974;BME280;62336;-26.094;27.994;2023-05-31T11:27:13;84791.15;;;29.14;19.67
73974;BME280;62336;-26.094;27.994;2023-05-31T11:32:05;84781.82;;;29.48;18.81
73974;BME280;62336;-26.094;27.994;2023-05-31T11:34:33;84772.55;;;29.46;19.68
73974;BME280;62336;-26.094;27.994;2023-05-31T11:36:59;84780.07;;;30.00;18.43
73974;BME280;62336;-26.094;27.994;2023-05-31T11:39:21;84770.16;;;29.77;18.49
73974;BME280;62336;-26.094;27.994;2023-05-31T11:41:47;84768.77;;;30.21;18.64
73974;BME280;62336;-26.094;27.994;2023-05-31T11:44:12;84770.35;;;29.60;18.42
73974;BME280;62336;-26.094;27.994;2023-05-31T11:46:41;84766.62;;;29.47;18.47
73974;BME280;62336;-26.094;27.994;2023-05-31T11:49:03;84763.19;;;29.59;18.87
73974;BME280;62336;-26.094;27.994;2023-05-31T11:51:28;84758.46;;;29.29;18.94
73974;BME280;62336;-26.094;27.994;2023-05-31T11:53:56;84754.78;;;29.42;18.59
73974;BME280;62336;-26.094;27.994;2023-05-31T11:56:28;84757.40;;;30.05;17.49
73974;BME280;62336;-26.094;27.994;2023-05-31T11:58:47;84755.44;;;30.05;17.07
73974;BME280;62336;-26.094;27.994;2023-05-31T12:01:12;84750.89;;;29.91;17.56
73974;BME280;62336;-26.094;27.994;2023-05-31T12:03:40;84750.68;;;29.92;17.90
73974;BME280;62336;-26.094;27.994;2023-05-31T12:06:01;84752.26;;;29.76;18.14
73974;BME280;62336;-26.094;27.994;2023-05-31T12:08:27;84751.55;;;29.73;18.04
73974;BME280;62336;-26.094;27.994;2023-05-31T12:13:18;84745.08;;;28.95;18.23
73974;BME280;62336;-26.094;27.994;2023-05-31T12:15:52;84744.29;;;29.14;18.46
73974;BME280;62336;-26.094;27.994;2023-05-31T12:18:12;84735.55;;;29.76;17.95
73974;BME280;62336;-26.094;27.994;2023-05-31T12:20:35;84735.82;;;29.98;17.30
73974;BME280;62336;-26.094;27.994;2023-05-31T12:23:10;84735.71;;;29.92;17.26
73974;BME280;62336;-26.094;27.994;2023-05-31T12:25:27;84743.61;;;29.93;17.49
73974;BME280;62336;-26.094;27.994;2023-05-31T12:27:52;84740.53;;;30.15;17.01
73974;BME280;62336;-26.094;27.994;2023-05-31T12:30:17;84739.71;;;30.14;17.31
73974;BME280;62336;-26.094;27.994;2023-05-31T12:32:45;84740.26;;;30.13;17.14
73974;BME280;62336;-26.094;27.994;2023-05-31T12:35:07;84744.69;;;30.10;17.51
73974;BME280;62336;-26.094;27.994;2023-05-31T12:37:34;84739.88;;;30.26;17.36
73974;BME280;62336;-26.094;27.994;2023-05-31T12:40:07;84740.11;;;30.11;17.62
73974;BME280;62336;-26.094;27.994;2023-05-31T12:42:25;84734.16;;;30.13;17.53
73974;BME280;62336;-26.094;27.994;2023-05-31T12:44:48;84726.44;;;30.49;17.31